Flight Track Log - Related Links

Times and Time Zones

All times are in EDT time to prevent confusion due to time zone crossing. See the CTL78 flight status page for this flight to view local times or setup timezone preferences in your user account.

Time Position Orientation Groundspeed Altitude Reporting Facility
EDT Latitude Longitude Course Direction KTS MPH feet Rate Location/Type
Fri 03:55:09 PM 42.6639 -83.4381 268° West 103 119 1,500  Level FAA TRACON SMA TRACON (SMA)
Fri 03:55:29 PM 42.6636 -83.4503 268° West 105 121 1,900 1,171 Climbing FAA TRACON SMA TRACON (SMA)
Fri 03:55:50 PM 42.6653 -83.4669 278° West 128 147 2,300 878 Climbing FAA TRACON SMA TRACON (SMA)
Fri 03:56:10 PM 42.6772 -83.4742 336° Northwest 159 183 2,500 600 Climbing FAA TRACON SMA TRACON (SMA)
Fri 03:56:30 PM 42.6917 -83.4767 353° North 168 193 2,700 600 Climbing FAA TRACON SMA TRACON (SMA)
Fri 03:56:50 PM 42.7100 -83.4800 352° North 172 198 2,900 615 Climbing FAA TRACON SMA TRACON (SMA)
Fri 03:57:09 PM 42.7250 -83.4825 353° North 176 203 3,100 600 Climbing FAA TRACON SMA TRACON (SMA)
Fri 03:57:30 PM 42.7406 -83.4853 353° North 179 206 3,300 585 Climbing FAA TRACON SMA TRACON (SMA)
Fri 03:57:50 PM 42.7597 -83.4881 354° North 179 206 3,500 450 Climbing FAA TRACON SMA TRACON (SMA)
Fri 03:58:10 PM 42.7753 -83.4900 355° North 180 207 3,600 300 Climbing FAA TRACON SMA TRACON (SMA)
Fri 03:58:30 PM 42.7892 -83.4981 337° Northwest 177 204 3,700 450 Climbing FAA TRACON SMA TRACON (SMA)
Fri 03:58:50 PM 42.8047 -83.5097 331° Northwest 164 189 3,900 600 Climbing FAA TRACON SMA TRACON (SMA)
Fri 03:59:10 PM 42.8169 -83.5197 329° Northwest 167 192 4,100 24 Climbing FAA TRACON SMA TRACON (SMA)
Fri 04:01:00 PM 42.8624 -83.4361 53° Northeast  Level FlightAware Approximate
Fri 04:02:58 PM 42.9692 -83.6344 321° Northwest 160 184 4,000  Level FAA TRACON SMA TRACON (SMA)
Fri 04:03:30 PM 42.9903 -83.6503 331° Northwest 160 184 4,000  Level FAA TRACON SMA TRACON (SMA)
Fri 04:03:49 PM 43.0019 -83.6597 329° Northwest 160 184 4,000 154 Level FAA TRACON SMA TRACON (SMA)
Fri 04:04:09 PM 43.0150 -83.6711 327° Northwest 160 184 4,100 150 Climbing FAA TRACON SMA TRACON (SMA)
Fri 04:04:29 PM 43.0292 -83.6800 335° Northwest 160 184 4,100  Level FAA TRACON SMA TRACON (SMA)
Fri 04:04:49 PM 43.0411 -83.6897 329° Northwest 161 185 4,100  Level FAA TRACON SMA TRACON (SMA)
Fri 04:06:00 PM 43.0891 -83.7243 332° Northwest  Level FlightAware Approximate
Fri 04:08:00 PM 43.1133 -83.6019 321° Northwest  Level FlightAware Approximate
Fri 04:13:00 PM 43.3665 -83.9443 334° Northwest  Level FlightAware Approximate
Fri 04:14:00 PM 43.4077 -83.9718 334° Northwest  Level FlightAware Approximate
Fri 04:15:00 PM 43.4490 -83.9993 334° Northwest  Level FlightAware Approximate
Fri 04:16:00 PM 43.4902 -84.0268 334° Northwest  Level FlightAware Approximate
Fri 04:17:00 PM 43.5167 -84.0667 305° West  Level FlightAware Approximate
Fri 04:18:00 PM 43.5329 -84.0796 305° West  Level Estimated
Fri 04:19:00 PM 43.5329 -84.0796 305° West  Level Estimated
Fri 04:20:00 PM 43.5329 -84.0796 305° West  Level Estimated
Fri 04:21:00 PM 43.5329 -84.0796 305° West  Level Estimated
Fri 04:22:00 PM 43.5329 -84.0796 305° West  Level Estimated
Fri 04:23:00 PM 43.5329 -84.0796 305° West  Level Estimated
Fri 04:24:00 PM 43.5329 -84.0796 305° West  Level Estimated
Fri 04:25:00 PM 43.5329 -84.0796 305° West  Level Estimated
Fri 04:26:00 PM 43.5329 -84.0796 305° West  Level Estimated
Fri 04:27:00 PM 43.5329 -84.0796 305° West  Level Estimated
Fri 04:28:00 PM 43.5329 -84.0796 305° West  Level Estimated
Fri 04:29:00 PM 43.5329 -84.0796 305° West  Level Estimated

Login

Don't have an account? Register now (free) for customized features, flight alerts, and more!